createdAt,value
2018-04-15T00:00:45.589Z,1018.54
2018-04-15T00:01:54.420Z,1018.58
2018-04-15T00:03:03.526Z,1018.57
2018-04-15T00:04:12.358Z,1018.56
2018-04-15T00:05:21.187Z,1018.54
2018-04-15T00:06:30.170Z,1018.55
2018-04-15T00:07:38.998Z,1018.51
2018-04-15T00:08:47.829Z,1018.53
2018-04-15T00:09:56.662Z,1018.55
2018-04-15T00:11:05.497Z,1018.52
2018-04-15T00:12:14.325Z,1018.5
2018-04-15T00:13:23.158Z,1018.44
2018-04-15T00:14:31.988Z,1018.46
2018-04-15T00:15:41.094Z,1018.44
2018-04-15T00:16:50.477Z,1018.4
2018-04-15T00:17:59.588Z,1018.39
2018-04-15T00:19:08.417Z,1018.41
2018-04-15T00:20:17.250Z,1018.37
2018-04-15T00:21:26.081Z,1018.33
2018-04-15T00:22:34.911Z,1018.27
2018-04-15T00:23:44.015Z,1018.26
2018-04-15T00:24:52.847Z,1018.22
2018-04-15T00:26:01.952Z,1018.22
2018-04-15T00:27:10.780Z,1018.24
2018-04-15T00:28:19.608Z,1018.22
2018-04-15T00:29:28.738Z,1018.2
2018-04-15T00:30:37.568Z,1018.18
2018-04-15T00:31:46.399Z,1018.22
2018-04-15T00:32:55.230Z,1018.2
2018-04-15T00:34:04.061Z,1018.13
2018-04-15T00:35:13.364Z,1018.14
2018-04-15T00:36:22.197Z,1018.17
2018-04-15T00:37:31.583Z,1018.08
2018-04-15T00:38:40.691Z,1018.12
2018-04-15T00:39:49.523Z,1018.1
2018-04-15T00:40:58.604Z,1018.09
2018-04-15T00:42:07.432Z,1018.16
2018-04-15T00:43:16.259Z,1018.14
2018-04-15T00:44:25.089Z,1018.06
2018-04-15T00:45:33.919Z,1018.09
2018-04-15T00:46:42.897Z,1018.09
2018-04-15T00:47:52.004Z,1018.07
2018-04-15T00:49:00.838Z,1018.06
2018-04-15T00:50:09.668Z,1018.08
2018-04-15T00:51:18.497Z,1018.06
2018-04-15T00:52:27.913Z,1018.02
2018-04-15T00:53:37.022Z,1018.03
2018-04-15T00:54:45.858Z,1018.03
2018-04-15T00:55:54.684Z,1018.01
2018-04-15T00:57:03.515Z,1018.05
2018-04-15T00:58:12.350Z,1018
2018-04-15T00:59:21.174Z,1017.97
2018-04-15T01:00:30.009Z,1017.98
2018-04-15T01:01:38.832Z,1017.93
2018-04-15T01:02:47.936Z,1017.92
2018-04-15T01:03:57.345Z,1017.89
2018-04-15T01:05:06.456Z,1017.92
2018-04-15T01:06:15.281Z,1017.94
2018-04-15T01:07:24.112Z,1017.94
2018-04-15T01:08:33.219Z,1017.89
2018-04-15T01:09:42.430Z,1017.91
2018-04-15T01:10:51.539Z,1017.92
2018-04-15T01:12:00.641Z,1017.91
2018-04-15T01:13:09.468Z,1017.93
2018-04-15T01:14:18.299Z,1017.91
2018-04-15T01:15:27.282Z,1017.96
2018-04-15T01:16:36.111Z,1017.94
2018-04-15T01:17:44.953Z,1017.93
2018-04-15T01:18:53.772Z,1017.9
2018-04-15T01:20:02.622Z,1017.85
2018-04-15T01:21:11.460Z,1017.86
2018-04-15T01:22:20.564Z,1017.81
2018-04-15T01:23:29.392Z,1017.87
2018-04-15T01:24:38.495Z,1017.86
2018-04-15T01:25:47.323Z,1017.84
2018-04-15T01:26:56.250Z,1017.85
2018-04-15T01:28:05.082Z,1017.84
2018-04-15T01:29:13.915Z,1017.84
2018-04-15T01:30:22.749Z,1017.8
2018-04-15T01:31:31.863Z,1017.79
2018-04-15T01:32:40.741Z,1017.73
2018-04-15T01:33:49.566Z,1017.73
2018-04-15T01:34:58.393Z,1017.71
2018-04-15T01:36:07.227Z,1017.66
2018-04-15T01:37:16.058Z,1017.69
2018-04-15T01:38:25.036Z,1017.69
2018-04-15T01:39:34.152Z,1017.65
2018-04-15T01:40:43.256Z,1017.61
2018-04-15T01:41:52.086Z,1017.62
2018-04-15T01:43:00.912Z,1017.63
2018-04-15T01:44:09.941Z,1017.63
2018-04-15T01:45:18.767Z,1017.65
2018-04-15T01:46:27.595Z,1017.61
2018-04-15T01:47:36.427Z,1017.59
2018-04-15T01:48:45.258Z,1017.56
2018-04-15T01:49:54.387Z,1017.53
2018-04-15T01:51:03.218Z,1017.54
2018-04-15T01:52:12.044Z,1017.51
2018-04-15T01:53:20.871Z,1017.51
2018-04-15T01:54:29.700Z,1017.49
2018-04-15T01:55:38.680Z,1017.4
2018-04-15T01:56:47.789Z,1017.43
2018-04-15T01:57:56.897Z,1017.45
2018-04-15T01:59:05.726Z,1017.41
2018-04-15T02:00:14.831Z,1017.42
2018-04-15T02:01:24.138Z,1017.42
2018-04-15T02:02:32.969Z,1017.48
2018-04-15T02:03:41.795Z,1017.42
2018-04-15T02:04:50.627Z,1017.41
2018-04-15T02:05:59.458Z,1017.42
2018-04-15T02:07:08.433Z,1017.38
2018-04-15T02:08:17.540Z,1017.38
2018-04-15T02:09:26.375Z,1017.39
2018-04-15T02:10:35.473Z,1017.35
2018-04-15T02:11:44.304Z,1017.37
2018-04-15T02:12:53.284Z,1017.36
2018-04-15T02:14:02.681Z,1017.36
2018-04-15T02:15:11.507Z,1017.39
2018-04-15T02:16:20.337Z,1017.38
2018-04-15T02:17:29.168Z,1017.38
2018-04-15T02:18:38.296Z,1017.35
2018-04-15T02:19:47.125Z,1017.35
2018-04-15T02:20:56.238Z,1017.37
2018-04-15T02:22:05.067Z,1017.35
2018-04-15T02:23:13.899Z,1017.37
2018-04-15T02:24:23.161Z,1017.32
2018-04-15T02:25:31.988Z,1017.26
2018-04-15T02:26:40.814Z,1017.28
2018-04-15T02:27:49.646Z,1017.32
2018-04-15T02:28:58.476Z,1017.27
2018-04-15T02:30:07.406Z,1017.3
2018-04-15T02:31:16.512Z,1017.29
2018-04-15T02:32:25.622Z,1017.29
2018-04-15T02:33:34.452Z,1017.26
2018-04-15T02:34:43.283Z,1017.27
2018-04-15T02:35:52.317Z,1017.2
2018-04-15T02:37:01.145Z,1017.17
2018-04-15T02:38:10.259Z,1017.17
2018-04-15T02:39:19.653Z,1017.19
2018-04-15T02:40:28.484Z,1017.16
2018-04-15T02:41:37.638Z,1017.11
2018-04-15T02:42:46.468Z,1017.07
2018-04-15T02:43:55.863Z,1017.07
2018-04-15T02:45:05.525Z,1017.06
2018-04-15T02:46:14.355Z,1017.04
2018-04-15T02:47:23.627Z,1017
2018-04-15T02:48:32.457Z,1016.95
2018-04-15T02:49:41.572Z,1016.9
2018-04-15T02:50:50.686Z,1016.91
2018-04-15T02:51:59.522Z,1016.87
2018-04-15T02:53:09.059Z,1016.88
2018-04-15T02:54:17.888Z,1016.94
2018-04-15T02:55:26.997Z,1016.92
2018-04-15T02:56:36.111Z,1016.86
2018-04-15T02:57:44.946Z,1016.86
2018-04-15T02:58:54.096Z,1016.82
2018-04-15T03:00:03.202Z,1016.8
2018-04-15T03:01:12.313Z,1016.8
2018-04-15T03:02:21.419Z,1016.77
2018-04-15T03:03:30.253Z,1016.76
2018-04-15T03:04:39.145Z,1016.71
2018-04-15T03:05:48.529Z,1016.7
2018-04-15T03:06:57.357Z,1016.73
2018-04-15T03:08:06.487Z,1016.72
2018-04-15T03:09:15.599Z,1016.7
2018-04-15T03:10:24.708Z,1016.67
2018-04-15T03:11:33.536Z,1016.59
2018-04-15T03:12:42.642Z,1016.58
2018-04-15T03:13:51.748Z,1016.58
2018-04-15T03:15:00.579Z,1016.6
2018-04-15T03:16:09.685Z,1016.63
2018-04-15T03:17:18.789Z,1016.63
2018-04-15T03:18:27.616Z,1016.61
2018-04-15T03:19:36.446Z,1016.56
2018-04-15T03:20:45.276Z,1016.55
2018-04-15T03:21:54.417Z,1016.59
2018-04-15T03:23:03.519Z,1016.62
2018-04-15T03:24:12.349Z,1016.59
2018-04-15T03:25:21.456Z,1016.63
2018-04-15T03:26:30.284Z,1016.58
2018-04-15T03:27:39.313Z,1016.49
2018-04-15T03:28:48.151Z,1016.51
2018-04-15T03:29:56.983Z,1016.52
2018-04-15T03:31:05.817Z,1016.48
2018-04-15T03:32:14.934Z,1016.48
2018-04-15T03:33:24.190Z,1016.44
2018-04-15T03:34:33.025Z,1016.45
2018-04-15T03:35:41.852Z,1016.42
2018-04-15T03:36:50.684Z,1016.4
2018-04-15T03:37:59.516Z,1016.34
2018-04-15T03:39:08.673Z,1016.33
2018-04-15T03:40:17.773Z,1016.31
2018-04-15T03:41:27.160Z,1016.35
2018-04-15T03:42:35.991Z,1016.36
2018-04-15T03:43:44.823Z,1016.34
2018-04-15T03:44:54.101Z,1016.3
2018-04-15T03:46:02.930Z,1016.35
2018-04-15T03:47:12.313Z,1016.32
2018-04-15T03:48:21.145Z,1016.31
2018-04-15T03:49:29.973Z,1016.37
2018-04-15T03:50:38.805Z,1016.3
2018-04-15T03:51:47.916Z,1016.35
2018-04-15T03:52:56.747Z,1016.31
2018-04-15T03:54:05.578Z,1016.32
2018-04-15T03:55:14.409Z,1016.29
2018-04-15T03:56:23.239Z,1016.33
2018-04-15T03:57:32.068Z,1016.35
2018-04-15T03:58:41.171Z,1016.32
2018-04-15T03:59:50.002Z,1016.34
2018-04-15T04:00:58.832Z,1016.33
2018-04-15T04:02:07.816Z,1016.31
2018-04-15T04:03:16.915Z,1016.31
2018-04-15T04:04:25.795Z,1016.27
2018-04-15T04:05:34.628Z,1016.27
2018-04-15T04:06:43.728Z,1016.22
2018-04-15T04:07:52.555Z,1016.29
2018-04-15T04:09:01.939Z,1016.26
2018-04-15T04:10:10.766Z,1016.3
2018-04-15T04:11:19.596Z,1016.26
2018-04-15T04:12:28.427Z,1016.25
2018-04-15T04:13:37.309Z,1016.27
2018-04-15T04:14:46.425Z,1016.23
2018-04-15T04:15:55.255Z,1016.27
2018-04-15T04:17:04.085Z,1016.22
2018-04-15T04:18:12.914Z,1016.21
2018-04-15T04:19:21.782Z,1016.22
2018-04-15T04:20:30.580Z,1016.25
2018-04-15T04:21:39.410Z,1016.3
2018-04-15T04:22:48.237Z,1016.31
2018-04-15T04:23:57.069Z,1016.28
2018-04-15T04:25:06.448Z,1016.25
2018-04-15T04:26:15.283Z,1016.19
2018-04-15T04:27:24.111Z,1016.17
2018-04-15T04:28:33.218Z,1016.21
2018-04-15T04:29:42.047Z,1016.22
2018-04-15T04:30:50.877Z,1016.26
2018-04-15T04:31:59.704Z,1016.21
2018-04-15T04:33:08.535Z,1016.26
2018-04-15T04:34:17.364Z,1016.27
2018-04-15T04:35:26.748Z,1016.28
2018-04-15T04:36:35.629Z,1016.29
2018-04-15T04:37:44.738Z,1016.24
2018-04-15T04:38:53.846Z,1016.25
2018-04-15T04:40:02.674Z,1016.27
2018-04-15T04:41:11.506Z,1016.23
2018-04-15T04:42:20.336Z,1016.26
2018-04-15T04:43:29.167Z,1016.21
2018-04-15T04:44:37.999Z,1016.27
2018-04-15T04:45:47.384Z,1016.26
2018-04-15T04:46:56.216Z,1016.26
2018-04-15T04:48:05.052Z,1016.26
2018-04-15T04:49:13.881Z,1016.27
2018-04-15T04:50:22.714Z,1016.24
2018-04-15T04:51:31.549Z,1016.24
2018-04-15T04:52:40.377Z,1016.24
2018-04-15T04:53:49.256Z,1016.28
2018-04-15T04:54:58.087Z,1016.3
2018-04-15T04:56:06.915Z,1016.32
2018-04-15T04:57:15.745Z,1016.33
2018-04-15T04:58:24.575Z,1016.36
2018-04-15T04:59:33.979Z,1016.38
2018-04-15T05:00:43.092Z,1016.38
2018-04-15T05:01:51.920Z,1016.38
2018-04-15T05:03:00.749Z,1016.37
2018-04-15T05:04:09.581Z,1016.41
2018-04-15T05:05:18.529Z,1016.41
2018-04-15T05:06:27.969Z,1016.47
2018-04-15T05:07:36.860Z,1016.5
2018-04-15T05:08:45.903Z,1016.43
2018-04-15T05:09:54.733Z,1016.5
2018-04-15T05:11:03.612Z,1016.5
2018-04-15T05:12:12.713Z,1016.5
2018-04-15T05:13:21.546Z,1016.55
2018-04-15T05:14:30.378Z,1016.55
2018-04-15T05:15:39.208Z,1016.58
2018-04-15T05:16:48.136Z,1016.59
2018-04-15T05:17:56.967Z,1016.56
2018-04-15T05:19:05.798Z,1016.58
2018-04-15T05:20:14.629Z,1016.58
2018-04-15T05:21:23.461Z,1016.55
2018-04-15T05:22:32.440Z,1016.6
2018-04-15T05:23:41.271Z,1016.64
2018-04-15T05:24:50.106Z,1016.64
2018-04-15T05:25:58.937Z,1016.66
2018-04-15T05:27:07.767Z,1016.72
2018-04-15T05:28:16.650Z,1016.69
2018-04-15T05:29:25.483Z,1016.66
2018-04-15T05:30:34.318Z,1016.69
2018-04-15T05:31:43.148Z,1016.74
2018-04-15T05:32:51.983Z,1016.7
2018-04-15T05:34:01.187Z,1016.81
2018-04-15T05:35:10.290Z,1016.79
2018-04-15T05:36:19.118Z,1016.83
2018-04-15T05:37:27.950Z,1016.87
2018-04-15T05:38:37.064Z,1016.86
2018-04-15T05:39:46.043Z,1016.92
2018-04-15T05:40:55.149Z,1016.95
2018-04-15T05:42:03.981Z,1016.96
2018-04-15T05:43:12.813Z,1016.97
2018-04-15T05:44:21.647Z,1016.93
2018-04-15T05:45:30.475Z,1016.93
2018-04-15T05:46:39.305Z,1016.96
2018-04-15T05:47:48.137Z,1016.91
2018-04-15T05:48:56.970Z,1016.91
2018-04-15T05:50:05.800Z,1016.97
2018-04-15T05:51:14.634Z,1016.99
2018-04-15T05:52:23.466Z,1016.97
2018-04-15T05:53:32.571Z,1016.91
2018-04-15T05:54:41.402Z,1016.92
2018-04-15T05:55:50.233Z,1016.86
2018-04-15T05:56:59.341Z,1016.84
2018-04-15T05:58:08.174Z,1016.82
2018-04-15T05:59:17.285Z,1016.79
2018-04-15T06:00:26.124Z,1016.78
2018-04-15T06:01:35.252Z,1016.76
2018-04-15T06:02:44.358Z,1016.77
2018-04-15T06:03:53.194Z,1016.76
2018-04-15T06:05:02.030Z,1016.76
2018-04-15T06:06:10.857Z,1016.76
2018-04-15T06:07:19.694Z,1016.78
2018-04-15T06:08:28.797Z,1016.73
2018-04-15T06:09:37.676Z,1016.77
2018-04-15T06:10:46.504Z,1016.74
2018-04-15T06:11:55.333Z,1016.72
2018-04-15T06:13:04.728Z,1016.68
2018-04-15T06:14:13.561Z,1016.7
2018-04-15T06:15:22.669Z,1016.69
2018-04-15T06:16:31.504Z,1016.72
2018-04-15T06:17:40.333Z,1016.69
2018-04-15T06:18:49.165Z,1016.7
2018-04-15T06:19:57.996Z,1016.7
2018-04-15T06:21:06.827Z,1016.71
2018-04-15T06:22:15.931Z,1016.71
2018-04-15T06:23:24.761Z,1016.69
2018-04-15T06:24:33.657Z,1016.71
2018-04-15T06:25:42.829Z,1016.72
2018-04-15T06:26:51.660Z,1016.7
2018-04-15T06:28:00.772Z,1016.7
2018-04-15T06:29:09.873Z,1016.75
2018-04-15T06:30:18.704Z,1016.72
2018-04-15T06:31:27.537Z,1016.67
2018-04-15T06:32:36.369Z,1016.71
2018-04-15T06:33:45.210Z,1016.74
2018-04-15T06:34:54.307Z,1016.7
2018-04-15T06:36:03.143Z,1016.72
2018-04-15T06:37:12.070Z,1016.72
2018-04-15T06:38:20.900Z,1016.7
2018-04-15T06:39:30.005Z,1016.73
2018-04-15T06:40:39.113Z,1016.72
2018-04-15T06:41:47.942Z,1016.72
2018-04-15T06:42:57.087Z,1016.71
2018-04-15T06:44:05.906Z,1016.75
2018-04-15T06:45:14.772Z,1016.69
2018-04-15T06:46:24.214Z,1016.69
2018-04-15T06:47:33.049Z,1016.65
2018-04-15T06:48:42.452Z,1016.58
2018-04-15T06:49:51.560Z,1016.52
2018-04-15T06:51:00.388Z,1016.54
2018-04-15T06:52:09.228Z,1016.56
2018-04-15T06:53:18.049Z,1016.56
2018-04-15T06:54:27.031Z,1016.57
2018-04-15T06:55:35.861Z,1016.49
2018-04-15T06:56:44.692Z,1016.5
2018-04-15T06:57:53.522Z,1016.51
2018-04-15T06:59:02.355Z,1016.51
2018-04-15T07:00:11.809Z,1016.49
2018-04-15T07:01:20.637Z,1016.49
2018-04-15T07:02:29.470Z,1016.46
2018-04-15T07:03:38.304Z,1016.5
2018-04-15T07:04:47.137Z,1016.46
2018-04-15T07:05:55.972Z,1016.47
2018-04-15T07:07:05.083Z,1016.44
2018-04-15T07:08:13.911Z,1016.43
2018-04-15T07:09:22.742Z,1016.38
2018-04-15T07:10:31.573Z,1016.4
2018-04-15T07:11:40.410Z,1016.38
2018-04-15T07:12:49.243Z,1016.34
2018-04-15T07:13:58.625Z,1016.29
2018-04-15T07:15:07.736Z,1016.28
2018-04-15T07:16:16.854Z,1016.26
2018-04-15T07:17:25.838Z,1016.28
2018-04-15T07:18:34.676Z,1016.25
2018-04-15T07:19:43.504Z,1016.24
2018-04-15T07:20:52.616Z,1016.24
2018-04-15T07:22:01.448Z,1016.25
2018-04-15T07:23:10.857Z,1016.24
2018-04-15T07:24:19.688Z,1016.23
2018-04-15T07:25:28.521Z,1016.21
2018-04-15T07:26:37.354Z,1016.24
2018-04-15T07:27:46.461Z,1016.2
2018-04-15T07:28:55.344Z,1016.22
2018-04-15T07:30:04.177Z,1016.22
2018-04-15T07:31:13.289Z,1016.22
2018-04-15T07:32:22.398Z,1016.21
2018-04-15T07:33:31.227Z,1016.18
2018-04-15T07:34:40.311Z,1016.2
2018-04-15T07:35:49.139Z,1016.25
2018-04-15T07:36:57.972Z,1016.19
2018-04-15T07:38:06.804Z,1016.14
2018-04-15T07:39:15.634Z,1016.14
2018-04-15T07:40:24.514Z,1016.12
2018-04-15T07:41:33.621Z,1016.14
2018-04-15T07:42:42.452Z,1016.11
2018-04-15T07:43:51.286Z,1016.12
2018-04-15T07:45:00.118Z,1016.06
2018-04-15T07:46:09.113Z,1016.03
2018-04-15T07:47:18.219Z,1016.01
2018-04-15T07:48:27.126Z,1016.02
2018-04-15T07:49:35.957Z,1016.03
2018-04-15T07:50:44.793Z,1015.99
2018-04-15T07:51:53.627Z,1016
2018-04-15T07:53:02.733Z,1016
2018-04-15T07:54:11.855Z,1015.95
2018-04-15T07:55:20.967Z,1015.97
2018-04-15T07:56:29.803Z,1015.95
2018-04-15T07:57:38.643Z,1015.97
2018-04-15T07:58:47.801Z,1015.98
2018-04-15T07:59:56.598Z,1015.97
2018-04-15T08:01:05.709Z,1016
2018-04-15T08:02:14.820Z,1015.96
2018-04-15T08:03:23.938Z,1015.99
2018-04-15T08:04:32.772Z,1016.01
2018-04-15T08:05:41.600Z,1016.01
2018-04-15T08:06:50.432Z,1015.98
2018-04-15T08:07:59.270Z,1015.96
2018-04-15T08:09:08.378Z,1015.95
2018-04-15T08:10:17.212Z,1015.93
2018-04-15T08:11:26.043Z,1015.96
2018-04-15T08:12:34.874Z,1015.94
2018-04-15T08:13:43.979Z,1015.94
2018-04-15T08:14:52.812Z,1015.94
2018-04-15T08:16:01.924Z,1015.92
2018-04-15T08:17:11.372Z,1015.91
2018-04-15T08:18:20.477Z,1015.85
2018-04-15T08:19:29.868Z,1015.85
2018-04-15T08:20:38.975Z,1015.89
2018-04-15T08:21:48.078Z,1015.85
2018-04-15T08:22:57.219Z,1015.83
2018-04-15T08:24:06.048Z,1015.78
2018-04-15T08:25:15.218Z,1015.77
2018-04-15T08:26:23.987Z,1015.78
2018-04-15T08:27:33.103Z,1015.73
2018-04-15T08:28:42.374Z,1015.74
2018-04-15T08:29:51.213Z,1015.76
2018-04-15T08:31:00.045Z,1015.74
2018-04-15T08:32:08.877Z,1015.74
2018-04-15T08:33:17.708Z,1015.76
2018-04-15T08:34:26.640Z,1015.73
2018-04-15T08:35:35.476Z,1015.73
2018-04-15T08:36:44.309Z,1015.75
2018-04-15T08:37:53.424Z,1015.75
2018-04-15T08:39:02.258Z,1015.72
2018-04-15T08:40:11.091Z,1015.71
2018-04-15T08:41:19.925Z,1015.7
2018-04-15T08:42:28.758Z,1015.71
2018-04-15T08:43:37.640Z,1015.72
2018-04-15T08:44:46.752Z,1015.68
2018-04-15T08:45:55.880Z,1015.64
2018-04-15T08:47:04.715Z,1015.63
2018-04-15T08:48:13.545Z,1015.66
2018-04-15T08:49:22.375Z,1015.57
2018-04-15T08:50:31.210Z,1015.54
2018-04-15T08:51:40.346Z,1015.54
2018-04-15T08:52:49.179Z,1015.54
2018-04-15T08:53:58.012Z,1015.53
2018-04-15T08:55:06.845Z,1015.46
2018-04-15T08:56:15.677Z,1015.48
2018-04-15T08:57:24.789Z,1015.45
2018-04-15T08:58:33.902Z,1015.51
2018-04-15T08:59:43.010Z,1015.45
2018-04-15T09:00:51.843Z,1015.42
2018-04-15T09:02:00.954Z,1015.39
2018-04-15T09:03:09.788Z,1015.39
2018-04-15T09:04:18.622Z,1015.36
2018-04-15T09:05:27.452Z,1015.4
2018-04-15T09:06:36.338Z,1015.34
2018-04-15T09:07:45.170Z,1015.34
2018-04-15T09:08:54.104Z,1015.35
2018-04-15T09:10:02.939Z,1015.39
2018-04-15T09:11:11.773Z,1015.37
2018-04-15T09:12:20.890Z,1015.41
2018-04-15T09:13:30.277Z,1015.36
2018-04-15T09:14:39.683Z,1015.37
2018-04-15T09:15:48.529Z,1015.36
2018-04-15T09:16:57.352Z,1015.37
2018-04-15T09:18:06.471Z,1015.37
2018-04-15T09:19:15.684Z,1015.33
2018-04-15T09:20:24.713Z,1015.31
2018-04-15T09:21:33.548Z,1015.32
2018-04-15T09:22:42.431Z,1015.33
2018-04-15T09:23:51.264Z,1015.26
2018-04-15T09:25:00.096Z,1015.29
2018-04-15T09:26:08.929Z,1015.27
2018-04-15T09:27:17.761Z,1015.26
2018-04-15T09:28:26.895Z,1015.24
2018-04-15T09:29:35.767Z,1015.22
2018-04-15T09:30:44.559Z,1015.22
2018-04-15T09:31:53.454Z,1015.18
2018-04-15T09:33:02.291Z,1015.17
2018-04-15T09:34:11.121Z,1015.14
2018-04-15T09:35:19.956Z,1015.11
2018-04-15T09:36:28.791Z,1015.06
2018-04-15T09:37:37.675Z,1015.13
2018-04-15T09:38:46.509Z,1015.1
2018-04-15T09:39:55.620Z,1015.05
2018-04-15T09:41:04.757Z,1014.99
2018-04-15T09:42:14.262Z,1014.97
2018-04-15T09:43:23.358Z,1014.96
2018-04-15T09:44:32.302Z,1014.94
2018-04-15T09:45:41.136Z,1014.9
2018-04-15T09:46:49.972Z,1014.84
2018-04-15T09:47:59.081Z,1014.8
2018-04-15T09:49:08.069Z,1014.79
2018-04-15T09:50:16.894Z,1014.81
2018-04-15T09:51:26.011Z,1014.84
2018-04-15T09:52:34.871Z,1014.9
2018-04-15T09:53:44.018Z,1014.83
2018-04-15T09:54:53.000Z,1014.88
2018-04-15T09:56:02.108Z,1014.85
2018-04-15T09:57:11.214Z,1014.79
2018-04-15T09:58:20.053Z,1014.83
2018-04-15T09:59:28.885Z,1014.74
2018-04-15T10:00:37.726Z,1014.82
2018-04-15T10:01:46.560Z,1014.78
2018-04-15T10:02:55.423Z,1014.75
2018-04-15T10:04:04.534Z,1014.72
2018-04-15T10:05:13.374Z,1014.74
2018-04-15T10:06:22.204Z,1014.73
2018-04-15T10:07:31.037Z,1014.67
2018-04-15T10:08:39.873Z,1014.68
2018-04-15T10:09:48.705Z,1014.71
2018-04-15T10:10:57.851Z,1014.69
2018-04-15T10:12:06.664Z,1014.68
2018-04-15T10:13:16.047Z,1014.66
2018-04-15T10:14:24.881Z,1014.62
2018-04-15T10:15:33.723Z,1014.67
2018-04-15T10:16:42.833Z,1014.61
2018-04-15T10:17:51.703Z,1014.62
2018-04-15T10:19:00.536Z,1014.57
2018-04-15T10:20:09.371Z,1014.57
2018-04-15T10:21:18.240Z,1014.61
2018-04-15T10:22:27.114Z,1014.64
2018-04-15T10:23:36.098Z,1014.66
2018-04-15T10:24:44.932Z,1014.66
2018-04-15T10:25:54.039Z,1014.67
2018-04-15T10:27:02.875Z,1014.67
2018-04-15T10:28:12.253Z,1014.67
2018-04-15T10:29:21.341Z,1014.7
2018-04-15T10:30:30.725Z,1014.65
2018-04-15T10:31:39.841Z,1014.67
2018-04-15T10:32:48.944Z,1014.64
2018-04-15T10:33:57.777Z,1014.63
2018-04-15T10:35:06.760Z,1014.65
2018-04-15T10:36:16.148Z,1014.61
2018-04-15T10:37:24.982Z,1014.62
2018-04-15T10:38:34.371Z,1014.55
2018-04-15T10:39:43.495Z,1014.56
2018-04-15T10:40:52.486Z,1014.56
2018-04-15T10:42:01.326Z,1014.53
2018-04-15T10:43:10.710Z,1014.47
2018-04-15T10:44:19.540Z,1014.5
2018-04-15T10:45:28.372Z,1014.46
2018-04-15T10:46:37.479Z,1014.43
2018-04-15T10:47:46.315Z,1014.43
2018-04-15T10:48:55.423Z,1014.44
2018-04-15T10:50:04.528Z,1014.35
2018-04-15T10:51:13.363Z,1014.38
2018-04-15T10:52:22.771Z,1014.39
2018-04-15T10:53:31.883Z,1014.39
2018-04-15T10:54:40.752Z,1014.38
2018-04-15T10:55:49.551Z,1014.36
2018-04-15T10:56:58.392Z,1014.34
2018-04-15T10:58:07.325Z,1014.32
2018-04-15T10:59:16.160Z,1014.3
2018-04-15T11:00:25.008Z,1014.28
2018-04-15T11:01:33.843Z,1014.27
2018-04-15T11:02:42.677Z,1014.23
2018-04-15T11:03:52.091Z,1014.19
2018-04-15T11:05:00.923Z,1014.2
2018-04-15T11:06:09.759Z,1014.18
2018-04-15T11:07:18.873Z,1014.29
2018-04-15T11:08:27.983Z,1014.28
2018-04-15T11:09:37.248Z,1014.29
2018-04-15T11:10:46.079Z,1014.27
2018-04-15T11:11:55.469Z,1014.27
2018-04-15T11:13:04.318Z,1014.24
2018-04-15T11:14:13.509Z,1014.28
2018-04-15T11:15:22.586Z,1014.25
2018-04-15T11:16:31.422Z,1014.21
2018-04-15T11:17:40.253Z,1014.2
2018-04-15T11:18:49.091Z,1014.21
2018-04-15T11:19:57.925Z,1014.2
2018-04-15T11:21:06.912Z,1014.17
2018-04-15T11:22:16.298Z,1014.18
2018-04-15T11:23:25.129Z,1014.21
2018-04-15T11:24:34.575Z,1014.23
2018-04-15T11:25:43.411Z,1014.24
2018-04-15T11:26:52.243Z,1014.27
2018-04-15T11:28:01.082Z,1014.26
2018-04-15T11:29:09.916Z,1014.25
2018-04-15T11:30:18.745Z,1014.22
2018-04-15T11:31:27.578Z,1014.21
2018-04-15T11:32:36.462Z,1014.2
2018-04-15T11:33:45.295Z,1014.17
2018-04-15T11:34:54.131Z,1014.17
2018-04-15T11:36:02.963Z,1014.16
2018-04-15T11:37:11.797Z,1014.16
2018-04-15T11:38:20.885Z,1014.11
2018-04-15T11:39:29.997Z,1014.14
2018-04-15T11:40:38.831Z,1014.17
2018-04-15T11:41:47.667Z,1014.13
2018-04-15T11:42:56.504Z,1014.11
2018-04-15T11:44:05.765Z,1014.16
2018-04-15T11:45:14.892Z,1014.13
2018-04-15T11:46:23.987Z,1014.15
2018-04-15T11:47:32.826Z,1014.15
2018-04-15T11:48:41.659Z,1014.15
2018-04-15T11:49:51.092Z,1014.12
2018-04-15T11:50:59.928Z,1014.08
2018-04-15T11:52:09.624Z,1014.13
2018-04-15T11:53:18.459Z,1014.1
2018-04-15T11:54:27.569Z,1014.08
2018-04-15T11:55:36.404Z,1014.07
2018-04-15T11:56:45.241Z,1014.07
2018-04-15T11:57:54.078Z,1014.02
2018-04-15T11:59:02.913Z,1013.98
2018-04-15T12:00:11.751Z,1014.03
2018-04-15T12:01:20.589Z,1014.03
2018-04-15T12:02:29.427Z,1014.06
2018-04-15T12:03:38.538Z,1014.04
2018-04-15T12:04:47.675Z,1013.97
2018-04-15T12:05:57.201Z,1013.97
2018-04-15T12:07:06.318Z,1013.99
2018-04-15T12:08:15.156Z,1013.98
2018-04-15T12:09:24.001Z,1014
2018-04-15T12:10:32.837Z,1013.97
2018-04-15T12:11:41.677Z,1013.95
2018-04-15T12:12:51.223Z,1013.99
2018-04-15T12:14:00.360Z,1013.97
2018-04-15T12:15:09.200Z,1014.01
2018-04-15T12:16:18.316Z,1014.03
2018-04-15T12:17:27.168Z,1013.99
2018-04-15T12:18:36.464Z,1014.03
2018-04-15T12:19:45.309Z,1014.03
2018-04-15T12:20:54.436Z,1014.07
2018-04-15T12:22:03.290Z,1014.03
2018-04-15T12:23:12.707Z,1014.06
2018-04-15T12:24:21.801Z,1014.07
2018-04-15T12:25:30.932Z,1013.97
2018-04-15T12:26:40.003Z,1013.96
2018-04-15T12:27:48.841Z,1013.96
2018-04-15T12:28:57.953Z,1014
2018-04-15T12:30:06.953Z,1013.99
2018-04-15T12:31:16.075Z,1013.99
2018-04-15T12:32:24.916Z,1013.98
2018-04-15T12:33:33.782Z,1013.95
2018-04-15T12:34:43.184Z,1013.96
2018-04-15T12:35:52.121Z,1013.94
2018-04-15T12:37:00.925Z,1013.94
2018-04-15T12:38:10.033Z,1013.96
2018-04-15T12:39:18.878Z,1013.88
2018-04-15T12:40:27.721Z,1013.91
2018-04-15T12:41:37.128Z,1013.84
2018-04-15T12:42:46.565Z,1013.81
2018-04-15T12:43:55.404Z,1013.87
2018-04-15T12:45:04.522Z,1013.85
2018-04-15T12:46:13.370Z,1013.87
2018-04-15T12:47:22.268Z,1013.9
2018-04-15T12:48:31.385Z,1013.85
2018-04-15T12:49:40.225Z,1013.83
2018-04-15T12:50:49.086Z,1013.84
2018-04-15T12:51:58.424Z,1013.82
2018-04-15T12:53:07.379Z,1013.74
2018-04-15T12:54:16.220Z,1013.7
2018-04-15T12:55:25.145Z,1013.69
2018-04-15T12:56:33.986Z,1013.68
2018-04-15T12:57:43.112Z,1013.68
2018-04-15T12:58:52.338Z,1013.65
2018-04-15T13:00:01.183Z,1013.71
2018-04-15T13:01:10.026Z,1013.68
2018-04-15T13:02:18.868Z,1013.67
2018-04-15T13:03:27.713Z,1013.66
2018-04-15T13:04:36.566Z,1013.6
2018-04-15T13:05:45.408Z,1013.59
2018-04-15T13:06:54.530Z,1013.6
2018-04-15T13:08:03.373Z,1013.58
2018-04-15T13:09:12.216Z,1013.55
2018-04-15T13:10:21.063Z,1013.5
2018-04-15T13:11:29.908Z,1013.57
2018-04-15T13:12:38.750Z,1013.53
2018-04-15T13:13:47.594Z,1013.56
2018-04-15T13:14:56.438Z,1013.6
2018-04-15T13:16:05.281Z,1013.56
2018-04-15T13:17:14.131Z,1013.43
2018-04-15T13:18:23.251Z,1013.46
2018-04-15T13:19:32.091Z,1013.46
2018-04-15T13:20:40.942Z,1013.5
2018-04-15T13:21:49.935Z,1013.43
2018-04-15T13:22:58.776Z,1013.54
2018-04-15T13:24:07.620Z,1013.52
2018-04-15T13:25:16.462Z,1013.53
2018-04-15T13:26:25.579Z,1013.5
2018-04-15T13:27:34.471Z,1013.5
2018-04-15T13:28:43.320Z,1013.52
2018-04-15T13:29:52.171Z,1013.45
2018-04-15T13:31:01.026Z,1013.36
2018-04-15T13:32:09.880Z,1013.42
2018-04-15T13:33:19.109Z,1013.44
2018-04-15T13:34:28.002Z,1013.42
2018-04-15T13:35:36.845Z,1013.43
2018-04-15T13:36:45.691Z,1013.5
2018-04-15T13:37:54.540Z,1013.56
2018-04-15T13:39:03.483Z,1013.53
2018-04-15T13:40:12.601Z,1013.4
2018-04-15T13:41:21.753Z,1013.41
2018-04-15T13:42:30.880Z,1013.39
2018-04-15T13:43:39.730Z,1013.34
2018-04-15T13:44:48.725Z,1013.36
2018-04-15T13:45:57.569Z,1013.35
2018-04-15T13:47:06.409Z,1013.43
2018-04-15T13:48:15.253Z,1013.53
2018-04-15T13:49:24.098Z,1013.39
2018-04-15T13:50:33.193Z,1013.46
2018-04-15T13:51:42.035Z,1013.73
2018-04-15T13:52:50.878Z,1013.71
2018-04-15T13:53:59.999Z,1013.68
2018-04-15T13:55:08.892Z,1013.41
2018-04-15T13:56:17.886Z,1013.51
2018-04-15T13:57:26.737Z,1013.43